Time;durP1;ratioP1;P1;durP2;ratioP2;P2;SDS_P1;SDS_P2;PMS_P1;PMS_P2;Temp;Humidity;BMP_temperature;BMP_pressure;BME280_temperature;BME280_humidity;BME280_pressure;Samples;Min_cycle;Max_cycle;Signal;HPM_P1;HPM_P2
2021/11/23 00:01:40;;;;;;;7.60;4.83;;;22.10;56.40;;;;;;4973593;28;20209;-81
2021/11/23 00:04:05;;;;;;;7.67;4.70;;;22.10;56.40;;;;;;5043548;28;20456;-81
2021/11/23 00:06:34;;;;;;;5.93;4.57;;;22.10;56.40;;;;;;5048422;28;20306;-82
2021/11/23 00:09:03;;;;;;;7.40;4.97;;;22.10;56.40;;;;;;5030999;28;20226;-82
2021/11/23 00:11:29;;;;;;;5.73;4.10;;;22.10;56.40;;;;;;5044136;28;20426;-81
2021/11/23 00:14:00;;;;;;;5.70;4.90;;;22.10;56.40;;;;;;5021998;28;20430;-81
2021/11/23 00:16:29;;;;;;;7.00;4.33;;;22.10;56.40;;;;;;5027041;28;20434;-81
2021/11/23 00:19:00;;;;;;;5.20;3.90;;;22.10;56.40;;;;;;5026743;28;20434;-81
2021/11/23 00:21:29;;;;;;;4.93;4.17;;;22.10;56.40;;;;;;5022199;28;20502;-81
2021/11/23 00:23:57;;;;;;;6.13;4.30;;;22.10;56.40;;;;;;5038234;28;20433;-82
2021/11/23 00:26:26;;;;;;;6.30;4.47;;;22.10;56.40;;;;;;5023922;28;20431;-81
2021/11/23 00:28:58;;;;;;;7.17;4.73;;;22.10;56.40;;;;;;5022362;28;20458;-81
2021/11/23 00:31:29;;;;;;;8.50;4.00;;;22.10;56.40;;;;;;5040121;28;20498;-81
2021/11/23 00:33:58;;;;;;;6.20;4.20;;;22.10;56.40;;;;;;5037949;28;20410;-81
2021/11/23 00:36:30;;;;;;;5.70;4.30;;;22.00;56.30;;;;;;5023972;28;20423;-79
2021/11/23 00:38:59;;;;;;;5.57;4.00;;;22.10;56.40;;;;;;5042646;28;20419;-79
2021/11/23 00:41:26;;;;;;;6.40;4.33;;;22.00;56.30;;;;;;5026313;28;20937;-79
2021/11/23 00:43:58;;;;;;;10.17;4.37;;;22.00;56.30;;;;;;5026511;28;20419;-79
2021/11/23 00:46:28;;;;;;;6.10;4.80;;;22.00;56.30;;;;;;5023824;28;20797;-79
2021/11/23 00:48:56;;;;;;;5.70;4.27;;;22.00;56.30;;;;;;5041988;28;20445;-80
2021/11/23 00:51:22;;;;;;;6.57;3.93;;;22.00;56.40;;;;;;5042570;28;20392;-79
2021/11/23 00:53:52;;;;;;;7.50;4.20;;;22.00;56.40;;;;;;5042478;28;20402;-79
2021/11/23 00:56:22;;;;;;;7.17;4.63;;;22.00;56.40;;;;;;5045051;28;20422;-79
2021/11/23 00:58:48;;;;;;;6.30;4.33;;;22.00;56.40;;;;;;5044981;28;20426;-79
2021/11/23 01:01:15;;;;;;;5.90;4.07;;;22.00;56.40;;;;;;5039152;28;20426;-79
2021/11/23 01:03:44;;;;;;;6.37;4.23;;;22.00;56.40;;;;;;5029765;28;20243;-79
2021/11/23 01:06:12;;;;;;;5.50;4.13;;;22.00;56.40;;;;;;5049910;28;20422;-79
2021/11/23 01:08:40;;;;;;;6.53;4.33;;;22.00;56.40;;;;;;5025944;28;20449;-79
2021/11/23 01:11:07;;;;;;;5.57;4.10;;;22.00;56.40;;;;;;5049025;28;20422;-79
2021/11/23 01:13:34;;;;;;;5.17;3.50;;;22.00;56.40;;;;;;5047540;28;20421;-80
2021/11/23 01:15:59;;;;;;;4.10;3.40;;;21.90;56.40;;;;;;5030712;28;20414;-79
2021/11/23 01:18:26;;;;;;;5.63;4.30;;;21.90;56.40;;;;;;5034243;28;20419;-79
2021/11/23 01:20:52;;;;;;;5.90;4.47;;;22.00;56.50;;;;;;5027196;28;20442;-79
2021/11/23 01:23:19;;;;;;;6.07;4.00;;;21.90;56.40;;;;;;5034704;28;20494;-79
2021/11/23 01:25:45;;;;;;;5.50;3.70;;;21.90;56.40;;;;;;5014248;28;20188;-79
2021/11/23 01:28:10;;;;;;;5.97;4.40;;;21.90;56.40;;;;;;5031301;28;20419;-79
2021/11/23 01:30:36;;;;;;;5.30;4.20;;;21.90;56.40;;;;;;5029641;28;20300;-79
2021/11/23 01:33:02;;;;;;;6.33;3.80;;;21.90;56.40;;;;;;5030891;28;20183;-79
2021/11/23 01:35:28;;;;;;;7.93;4.70;;;21.90;56.40;;;;;;5045829;28;20418;-79
2021/11/23 01:37:54;;;;;;;5.70;3.40;;;21.90;56.40;;;;;;5045012;28;20407;-79
2021/11/23 01:40:20;;;;;;;5.70;4.50;;;21.90;56.40;;;;;;5013021;28;20207;-80
2021/11/23 01:42:46;;;;;;;5.80;3.97;;;21.90;56.40;;;;;;5021423;28;20192;-79
2021/11/23 01:45:12;;;;;;;6.07;4.43;;;21.90;56.40;;;;;;5031516;28;20184;-79
2021/11/23 01:47:38;;;;;;;5.50;3.50;;;21.90;56.40;;;;;;5031024;28;20191;-80
2021/11/23 01:50:07;;;;;;;5.47;3.43;;;21.90;56.40;;;;;;5013556;28;20471;-80
2021/11/23 01:52:33;;;;;;;6.77;3.50;;;21.90;56.40;;;;;;5012637;28;20434;-80
2021/11/23 01:55:00;;;;;;;6.37;4.03;;;21.90;56.50;;;;;;5021627;28;20424;-79
2021/11/23 01:57:26;;;;;;;4.27;3.33;;;21.90;56.50;;;;;;5043954;28;20848;-80
2021/11/23 01:59:52;;;;;;;7.20;4.77;;;21.90;56.50;;;;;;5048157;28;20426;-79
2021/11/23 02:02:18;;;;;;;6.80;4.40;;;21.80;56.40;;;;;;5048051;28;20642;-79
2021/11/23 02:04:45;;;;;;;4.07;3.30;;;21.80;56.40;;;;;;5031023;28;20476;-79
2021/11/23 02:07:13;;;;;;;5.07;3.67;;;21.80;56.40;;;;;;5024552;28;20187;-80
2021/11/23 02:09:39;;;;;;;5.93;3.77;;;21.80;56.40;;;;;;5031500;28;20458;-80
2021/11/23 02:12:05;;;;;;;6.37;3.60;;;21.80;56.40;;;;;;5030750;28;21003;-79
2021/11/23 02:14:32;;;;;;;4.23;3.67;;;21.80;56.50;;;;;;5042434;28;20414;-79
2021/11/23 02:16:57;;;;;;;4.53;3.83;;;21.80;56.40;;;;;;5030210;28;20415;-79
2021/11/23 02:19:23;;;;;;;5.27;3.63;;;21.80;56.40;;;;;;5019260;28;20459;-79
2021/11/23 02:21:49;;;;;;;5.00;4.07;;;21.80;56.50;;;;;;5048747;28;20184;-79
2021/11/23 02:24:15;;;;;;;5.83;3.70;;;21.80;56.40;;;;;;5035594;28;20187;-78
2021/11/23 02:26:41;;;;;;;5.23;4.10;;;21.80;56.40;;;;;;5033650;28;20180;-79
2021/11/23 02:29:07;;;;;;;5.27;4.20;;;21.80;56.40;;;;;;5046440;28;20453;-79
2021/11/23 02:31:33;;;;;;;3.80;3.00;;;21.80;56.40;;;;;;5030408;28;20418;-79
2021/11/23 02:33:58;;;;;;;4.33;3.40;;;21.80;56.40;;;;;;5032513;28;20638;-80
2021/11/23 02:39:51;;;;;;;5.23;3.00;;;21.80;56.40;;;;;;5030997;28;20234;-79
2021/11/23 02:42:17;;;;;;;3.80;3.33;;;21.80;56.50;;;;;;5012391;28;20470;-79
2021/11/23 02:44:43;;;;;;;6.10;3.57;;;21.80;56.50;;;;;;5025836;28;20430;-79
2021/11/23 02:47:09;;;;;;;4.73;2.97;;;21.80;56.50;;;;;;5033174;28;20203;-79
2021/11/23 02:49:34;;;;;;;5.53;3.47;;;21.80;56.50;;;;;;5028111;28;20468;-79
2021/11/23 02:52:00;;;;;;;4.63;3.37;;;21.80;56.50;;;;;;5038267;28;20236;-79
2021/11/23 02:54:26;;;;;;;5.03;3.60;;;21.80;56.50;;;;;;5016146;28;20577;-79
2021/11/23 02:56:52;;;;;;;5.67;4.13;;;21.80;56.50;;;;;;5030962;28;20444;-79
2021/11/23 03:02:40;;;;;;;6.43;3.17;;;21.80;56.50;;;;;;5042260;28;20211;-80
2021/11/23 03:05:08;;;;;;;5.90;4.07;;;21.70;56.40;;;;;;5046054;28;20419;-80
2021/11/23 03:07:34;;;;;;;4.53;3.60;;;21.80;56.50;;;;;;5035044;28;20183;-80
2021/11/23 03:09:59;;;;;;;3.97;3.10;;;21.80;56.50;;;;;;5019457;28;20463;-80
2021/11/23 03:12:26;;;;;;;5.30;3.07;;;21.80;56.50;;;;;;5032352;28;20418;-80
2021/11/23 03:14:52;;;;;;;4.13;3.13;;;21.80;56.50;;;;;;5015339;28;20176;-80
2021/11/23 03:17:19;;;;;;;4.60;3.67;;;21.80;56.50;;;;;;5033426;28;20412;-79
2021/11/23 03:19:47;;;;;;;4.13;3.13;;;21.80;56.50;;;;;;5015816;28;20180;-80
2021/11/23 03:22:14;;;;;;;6.33;3.67;;;21.80;56.50;;;;;;5007564;28;20481;-79
2021/11/23 03:24:40;;;;;;;3.73;3.30;;;21.80;56.50;;;;;;5035153;28;20415;-79
2021/11/23 03:27:08;;;;;;;4.67;3.03;;;21.80;56.50;;;;;;5035347;28;20418;-79
2021/11/23 03:29:34;;;;;;;3.67;3.10;;;21.80;56.50;;;;;;5019890;28;20482;-79
2021/11/23 03:32:01;;;;;;;5.20;3.83;;;21.80;56.50;;;;;;5052619;28;20410;-79
2021/11/23 03:34:27;;;;;;;4.87;3.20;;;21.80;56.50;;;;;;5052287;28;20415;-80
2021/11/23 03:36:52;;;;;;;4.13;3.00;;;21.80;56.50;;;;;;5052815;28;20497;-81
2021/11/23 03:39:18;;;;;;;4.23;3.23;;;21.80;56.50;;;;;;5029716;28;20434;-80
2021/11/23 03:41:44;;;;;;;4.27;3.13;;;21.80;56.50;;;;;;5032854;28;20246;-79
2021/11/23 03:44:10;;;;;;;4.90;3.37;;;21.80;56.50;;;;;;5032542;28;20176;-80
2021/11/23 03:46:37;;;;;;;3.53;3.03;;;21.80;56.50;;;;;;5035575;28;20509;-80
2021/11/23 03:49:02;;;;;;;4.10;3.17;;;21.70;56.40;;;;;;5040313;28;20449;-80
2021/11/23 03:51:28;;;;;;;3.97;3.10;;;21.70;56.50;;;;;;5034480;28;20572;-80
2021/11/23 03:53:54;;;;;;;3.90;3.13;;;21.70;56.50;;;;;;5032927;28;20181;-80
2021/11/23 03:56:20;;;;;;;4.07;3.10;;;21.70;56.40;;;;;;5033773;28;20191;-79
2021/11/23 03:58:45;;;;;;;3.40;3.03;;;21.70;56.50;;;;;;5014961;28;20176;-80
2021/11/23 04:01:11;;;;;;;4.67;2.83;;;21.70;56.40;;;;;;5039347;28;20236;-79
2021/11/23 04:03:37;;;;;;;4.50;3.17;;;21.70;56.50;;;;;;5052055;28;20213;-80
2021/11/23 04:06:04;;;;;;;4.83;3.30;;;21.70;56.50;;;;;;5052554;28;20198;-80
2021/11/23 04:08:30;;;;;;;4.77;2.80;;;21.70;56.50;;;;;;5052092;28;20407;-80
2021/11/23 04:10:56;;;;;;;4.33;3.20;;;21.70;56.50;;;;;;5033648;28;20450;-80
2021/11/23 04:13:22;;;;;;;3.90;2.70;;;21.70;56.50;;;;;;5051758;28;20505;-80
2021/11/23 04:15:49;;;;;;;4.03;3.00;;;21.70;56.50;;;;;;5051207;28;20417;-80
2021/11/23 04:18:15;;;;;;;4.57;3.20;;;21.70;56.50;;;;;;5032795;28;20766;-79
2021/11/23 04:20:40;;;;;;;4.17;3.17;;;21.70;56.50;;;;;;5046880;28;20414;-79
2021/11/23 04:23:06;;;;;;;3.80;3.30;;;21.70;56.50;;;;;;5045900;28;20418;-80
2021/11/23 04:25:35;;;;;;;4.13;3.40;;;21.70;56.50;;;;;;5025584;28;20188;-80
2021/11/23 04:28:01;;;;;;;3.43;2.80;;;21.70;56.50;;;;;;5045213;28;20421;-80
2021/11/23 04:30:28;;;;;;;3.93;2.60;;;21.70;56.50;;;;;;5024553;28;20467;-80
2021/11/23 04:32:53;;;;;;;5.37;3.67;;;21.70;56.50;;;;;;5029952;28;20424;-80
2021/11/23 04:35:20;;;;;;;3.20;2.40;;;21.70;56.50;;;;;;5047187;28;20407;-79
2021/11/23 04:37:46;;;;;;;4.60;3.07;;;21.70;56.50;;;;;;5046766;28;20238;-80
2021/11/23 04:40:14;;;;;;;4.33;3.70;;;21.70;56.50;;;;;;5031235;28;20513;-79
2021/11/23 04:42:41;;;;;;;3.00;2.60;;;21.70;56.50;;;;;;5052059;28;20434;-79
2021/11/23 04:45:09;;;;;;;3.43;3.00;;;21.70;56.50;;;;;;5041773;28;20411;-79
2021/11/23 04:47:36;;;;;;;3.13;2.73;;;21.70;56.50;;;;;;5027722;28;20414;-80
2021/11/23 04:50:04;;;;;;;3.40;2.90;;;21.60;56.40;;;;;;5039808;28;20538;-79
2021/11/23 04:52:29;;;;;;;3.80;2.40;;;21.70;56.50;;;;;;5026723;28;21043;-79
2021/11/23 04:54:57;;;;;;;3.93;2.97;;;21.60;56.50;;;;;;5043286;28;20422;-79
2021/11/23 04:57:23;;;;;;;3.90;2.90;;;21.60;56.50;;;;;;5041494;28;20168;-78
2021/11/23 04:59:49;;;;;;;3.33;2.67;;;21.60;56.50;;;;;;5020494;28;20426;-78
2021/11/23 05:02:15;;;;;;;4.10;2.83;;;21.60;56.50;;;;;;5031173;28;20449;-78
2021/11/23 05:04:40;;;;;;;2.80;2.40;;;21.60;56.50;;;;;;5042227;28;20187;-79
2021/11/23 05:07:06;;;;;;;3.60;2.80;;;21.60;56.50;;;;;;5032608;28;20188;-79
2021/11/23 05:09:32;;;;;;;4.00;2.63;;;21.60;56.50;;;;;;5040050;28;20461;-79
2021/11/23 05:11:58;;;;;;;3.73;2.80;;;21.60;56.60;;;;;;5038965;28;20176;-79
2021/11/23 05:14:24;;;;;;;3.53;2.87;;;21.60;56.50;;;;;;5019909;28;20184;-79
2021/11/23 05:16:49;;;;;;;3.50;2.43;;;21.60;56.50;;;;;;5040978;28;20184;-79
2021/11/23 05:19:15;;;;;;;4.30;2.97;;;21.60;56.60;;;;;;5041896;28;20179;-79
2021/11/23 05:21:41;;;;;;;4.40;2.70;;;21.60;56.60;;;;;;5040746;28;20414;-79
2021/11/23 05:24:09;;;;;;;3.30;2.67;;;21.60;56.60;;;;;;5025694;28;20218;-79
2021/11/23 05:26:36;;;;;;;4.00;2.80;;;21.60;56.50;;;;;;5026484;28;20180;-79
2021/11/23 05:29:02;;;;;;;4.00;2.60;;;21.60;56.50;;;;;;5037256;28;20518;-79
2021/11/23 05:31:27;;;;;;;4.00;2.63;;;21.60;56.50;;;;;;5029921;28;20403;-79
2021/11/23 05:33:53;;;;;;;3.33;2.87;;;21.60;56.50;;;;;;5023839;28;20418;-79
2021/11/23 05:36:19;;;;;;;5.03;3.10;;;21.60;56.50;;;;;;5028339;28;20184;-79
2021/11/23 05:38:45;;;;;;;2.77;2.40;;;21.60;56.40;;;;;;5019594;28;20176;-79
2021/11/23 05:41:10;;;;;;;3.00;2.50;;;21.60;56.40;;;;;;5042356;28;20651;-79
2021/11/23 05:46:59;;;;;;;4.20;3.13;;;21.60;56.40;;;;;;5043362;28;20596;-79
2021/11/23 05:50:05;;;;;;;3.30;3.00;;;21.60;56.50;;;;;;5022663;28;20455;-79
2021/11/23 05:52:31;;;;;;;2.97;2.40;;;21.60;56.40;;;;;;5021012;28;20171;-79
2021/11/23 05:54:57;;;;;;;4.40;2.50;;;21.60;56.50;;;;;;5046061;28;20422;-78
2021/11/23 05:57:23;;;;;;;2.70;1.97;;;21.60;57.00;;;;;;5044316;28;20239;-78
2021/11/23 05:59:48;;;;;;;3.87;3.00;;;21.60;56.40;;;;;;5021398;28;20188;-78
2021/11/23 06:02:14;;;;;;;3.27;2.50;;;21.60;56.40;;;;;;5018146;28;20978;-78
2021/11/23 06:04:40;;;;;;;2.57;2.20;;;21.60;56.40;;;;;;5027395;28;20421;-79
2021/11/23 06:07:06;;;;;;;2.40;1.97;;;21.60;56.40;;;;;;5024621;28;20179;-79
2021/11/23 06:09:32;;;;;;;3.30;2.17;;;21.60;56.40;;;;;;5023138;28;20207;-78
2021/11/23 06:11:57;;;;;;;4.50;2.33;;;21.70;56.40;;;;;;5042978;28;20190;-80
2021/11/23 06:14:48;;;;;;;3.30;2.47;;;21.70;56.40;;;;;;5018733;28;20234;-78
2021/11/23 06:17:14;;;;;;;2.57;2.00;;;21.70;56.40;;;;;;5040506;28;20188;-78
2021/11/23 06:19:40;;;;;;;3.50;2.60;;;21.70;56.40;;;;;;5038975;28;20415;-78
2021/11/23 06:22:07;;;;;;;3.10;2.50;;;21.70;56.40;;;;;;5023725;28;20406;-78
2021/11/23 06:24:33;;;;;;;2.80;2.30;;;21.70;56.40;;;;;;5038208;28;20187;-78
2021/11/23 06:26:59;;;;;;;3.47;2.63;;;21.70;56.40;;;;;;5015543;28;20431;-79
2021/11/23 06:29:25;;;;;;;4.20;2.33;;;21.70;56.40;;;;;;5018907;28;20451;-77
2021/11/23 06:31:50;;;;;;;2.50;2.30;;;21.70;56.40;;;;;;5042503;28;20214;-79
2021/11/23 06:34:19;;;;;;;2.90;2.40;;;21.70;56.40;;;;;;5042459;28;20170;-78
2021/11/23 06:36:45;;;;;;;3.30;2.57;;;21.70;56.40;;;;;;5045821;28;20615;-79
2021/11/23 06:39:11;;;;;;;3.77;2.17;;;21.70;56.40;;;;;;5025484;28;20449;-79
2021/11/23 06:41:38;;;;;;;3.90;2.70;;;21.70;56.90;;;;;;4985853;28;1210104;-79
2021/11/23 06:44:04;;;;;;;2.80;2.23;;;21.70;56.40;;;;;;5045516;28;20206;-79
2021/11/23 06:46:30;;;;;;;3.37;2.50;;;21.70;56.40;;;;;;5047790;28;20426;-80
2021/11/23 06:48:58;;;;;;;3.30;2.20;;;21.70;56.40;;;;;;5035840;28;20869;-78
2021/11/23 06:51:24;;;;;;;5.97;2.53;;;21.70;56.30;;;;;;5029125;28;20415;-78
2021/11/23 06:53:50;;;;;;;2.97;2.30;;;21.70;56.10;;;;;;5027692;28;20430;-79
2021/11/23 06:56:16;;;;;;;3.07;2.20;;;21.70;56.10;;;;;;5031982;28;20411;-79
2021/11/23 06:58:42;;;;;;;3.10;2.07;;;21.70;56.10;;;;;;5028494;28;20196;-79
2021/11/23 07:01:08;;;;;;;3.17;2.43;;;21.70;56.10;;;;;;5028402;28;20434;-79
2021/11/23 07:03:34;;;;;;;3.30;2.33;;;21.70;56.10;;;;;;5012554;28;20462;-79
2021/11/23 07:06:00;;;;;;;3.57;2.00;;;21.70;56.10;;;;;;5020634;28;20218;-79
2021/11/23 07:08:26;;;;;;;4.10;2.40;;;21.70;56.20;;;;;;5026003;28;20553;-79
2021/11/23 07:10:52;;;;;;;3.43;2.57;;;21.70;56.20;;;;;;5020867;28;20208;-80
2021/11/23 07:13:18;;;;;;;3.73;2.10;;;21.70;56.20;;;;;;5033874;28;20418;-80
2021/11/23 07:15:44;;;;;;;3.37;2.60;;;21.70;56.20;;;;;;5032763;28;20403;-78
2021/11/23 07:18:10;;;;;;;2.27;1.80;;;21.70;56.20;;;;;;5016107;28;20187;-78
2021/11/23 07:20:36;;;;;;;2.10;1.70;;;21.70;56.20;;;;;;5031508;28;20431;-79
2021/11/23 07:23:02;;;;;;;2.90;2.20;;;21.70;56.20;;;;;;5015000;28;20951;-79
2021/11/23 07:25:28;;;;;;;3.63;2.10;;;21.70;56.10;;;;;;5031325;28;20647;-78
2021/11/23 07:27:54;;;;;;;5.03;2.70;;;21.80;56.20;;;;;;4997423;28;20431;-79
2021/11/23 07:30:20;;;;;;;3.13;2.37;;;21.80;56.20;;;;;;5032113;28;20460;-79
2021/11/23 07:32:45;;;;;;;3.80;2.50;;;21.80;56.20;;;;;;5013338;28;20180;-79
2021/11/23 07:35:18;;;;;;;2.87;2.50;;;21.80;56.20;;;;;;5018206;28;20210;-80
2021/11/23 07:37:44;;;;;;;3.13;2.43;;;21.80;56.20;;;;;;5018551;28;20184;-79
2021/11/23 07:40:11;;;;;;;4.23;2.10;;;21.80;56.20;;;;;;5037015;28;20447;-79
2021/11/23 07:42:38;;;;;;;2.10;1.90;;;21.80;56.20;;;;;;5035600;28;20192;-78
2021/11/23 07:45:04;;;;;;;3.37;2.10;;;21.80;56.20;;;;;;5020118;28;20446;-78
2021/11/23 07:47:30;;;;;;;2.70;2.00;;;21.80;56.20;;;;;;5020623;28;20442;-79
2021/11/23 07:49:56;;;;;;;2.60;1.83;;;21.80;56.10;;;;;;5037278;28;20467;-79
2021/11/23 07:52:22;;;;;;;3.00;1.70;;;21.80;56.10;;;;;;5037658;28;20572;-78
2021/11/23 07:54:48;;;;;;;4.07;2.57;;;21.80;56.10;;;;;;5031672;28;20184;-78
2021/11/23 07:57:13;;;;;;;3.27;2.47;;;21.80;56.10;;;;;;5030388;28;20183;-77
2021/11/23 07:59:39;;;;;;;3.90;2.40;;;21.80;56.10;;;;;;5041883;28;20196;-78
2021/11/23 08:02:05;;;;;;;3.57;2.10;;;21.80;56.10;;;;;;5030667;28;20223;-78
2021/11/23 08:04:31;;;;;;;3.13;2.00;;;21.80;56.10;;;;;;5029162;28;20262;-79
2021/11/23 08:06:57;;;;;;;3.60;2.40;;;21.80;56.10;;;;;;5046457;28;20207;-80
2021/11/23 08:09:23;;;;;;;3.00;1.87;;;21.80;56.10;;;;;;5021899;28;20578;-79
2021/11/23 08:11:48;;;;;;;6.37;3.00;;;21.80;56.10;;;;;;5046138;28;20421;-79
2021/11/23 08:14:14;;;;;;;4.43;2.57;;;21.80;56.10;;;;;;5043964;28;20179;-77
2021/11/23 08:16:40;;;;;;;4.53;3.40;;;21.80;56.10;;;;;;5028021;28;20189;-78
2021/11/23 08:19:05;;;;;;;6.90;3.77;;;21.80;55.70;;;;;;5023064;28;20185;-79
2021/11/23 08:21:31;;;;;;;5.20;3.50;;;21.80;55.10;;;;;;5045043;28;20202;-78
2021/11/23 08:23:58;;;;;;;4.53;3.43;;;21.80;54.90;;;;;;5045563;28;20184;-78
2021/11/23 08:26:26;;;;;;;4.20;3.20;;;21.80;54.90;;;;;;5031022;28;20183;-79
2021/11/23 08:28:56;;;;;;;4.13;2.90;;;21.70;54.80;;;;;;5044525;28;20425;-79
2021/11/23 08:31:21;;;;;;;4.23;3.00;;;21.70;54.90;;;;;;5024748;28;20429;-78
2021/11/23 08:33:47;;;;;;;4.23;2.53;;;21.70;55.00;;;;;;5026951;28;20430;-78
2021/11/23 08:36:13;;;;;;;3.40;2.63;;;21.70;55.10;;;;;;5045648;28;20172;-78
2021/11/23 08:38:39;;;;;;;5.00;2.53;;;21.70;55.20;;;;;;5025532;28;20177;-78
2021/11/23 08:41:05;;;;;;;3.70;2.77;;;21.70;55.30;;;;;;5031469;28;20468;-80
2021/11/23 08:43:31;;;;;;;2.40;2.20;;;21.70;55.30;;;;;;5042328;28;20185;-79
2021/11/23 08:45:57;;;;;;;3.40;2.40;;;21.70;55.30;;;;;;5046620;28;20505;-78
2021/11/23 08:48:24;;;;;;;4.60;2.53;;;21.70;55.40;;;;;;5043320;28;20420;-78
2021/11/23 08:50:50;;;;;;;4.00;2.53;;;21.70;55.40;;;;;;5012146;28;20473;-77
2021/11/23 08:53:16;;;;;;;4.37;2.40;;;21.70;55.40;;;;;;5047766;28;20919;-79
2021/11/23 08:55:47;;;;;;;2.27;2.07;;;21.70;55.40;;;;;;5047455;28;20237;-77
2021/11/23 08:58:13;;;;;;;3.30;2.67;;;21.80;55.50;;;;;;5046308;28;20430;-78
2021/11/23 09:00:41;;;;;;;3.47;2.30;;;21.80;55.50;;;;;;5027300;28;20419;-79
2021/11/23 09:03:06;;;;;;;3.83;2.57;;;21.80;55.60;;;;;;5025895;28;20431;-78
2021/11/23 09:05:37;;;;;;;4.07;2.17;;;21.70;55.50;;;;;;5031928;28;20470;-78
2021/11/23 09:08:05;;;;;;;2.87;2.30;;;21.80;55.60;;;;;;5031584;28;20419;-78
2021/11/23 09:10:43;;;;;;;3.43;2.60;;;21.80;55.60;;;;;;5014516;28;20467;-79
2021/11/23 09:13:10;;;;;;;3.97;2.63;;;21.80;55.60;;;;;;5034258;28;20497;-77
2021/11/23 09:15:37;;;;;;;3.73;2.40;;;21.80;55.60;;;;;;5034925;28;20446;-78
2021/11/23 09:18:05;;;;;;;3.17;1.93;;;21.80;55.60;;;;;;5033801;28;20418;-78
2021/11/23 09:20:37;;;;;;;2.47;2.27;;;21.80;55.60;;;;;;5033735;28;20437;-77
2021/11/23 09:23:11;;;;;;;4.57;2.30;;;21.80;55.60;;;;;;5033949;28;20430;-77
2021/11/23 09:25:39;;;;;;;3.23;2.53;;;21.80;55.60;;;;;;5032566;28;20438;-77
2021/11/23 09:28:06;;;;;;;4.57;2.83;;;21.80;55.60;;;;;;5044292;28;20485;-77
2021/11/23 09:30:34;;;;;;;2.73;2.40;;;21.80;55.60;;;;;;5040247;28;20508;-77
2021/11/23 09:33:02;;;;;;;4.87;2.87;;;21.80;55.50;;;;;;5046771;28;20965;-78
2021/11/23 09:35:29;;;;;;;3.40;3.00;;;21.80;55.50;;;;;;5026336;28;20457;-77
2021/11/23 09:37:56;;;;;;;4.53;3.30;;;21.80;55.50;;;;;;5023050;28;20945;-77
2021/11/23 09:40:22;;;;;;;3.97;2.50;;;21.80;55.50;;;;;;5036610;28;20510;-77
2021/11/23 09:42:49;;;;;;;2.90;2.47;;;21.80;55.50;;;;;;5044471;28;20427;-78
2021/11/23 09:45:16;;;;;;;2.10;1.90;;;21.80;55.50;;;;;;5029440;28;20940;-78
2021/11/23 09:47:43;;;;;;;3.37;1.90;;;21.80;55.50;;;;;;5044412;28;20434;-78
2021/11/23 09:50:10;;;;;;;3.00;2.33;;;21.80;55.40;;;;;;5039394;28;20485;-77
2021/11/23 09:52:36;;;;;;;2.27;1.83;;;21.80;55.50;;;;;;5037201;28;20455;-76
2021/11/23 09:55:06;;;;;;;2.50;2.27;;;21.80;55.50;;;;;;5017878;28;20442;-77
2021/11/23 09:57:33;;;;;;;2.80;2.30;;;21.80;55.50;;;;;;5029211;28;20434;-76
2021/11/23 09:59:59;;;;;;;2.57;2.17;;;21.80;55.50;;;;;;5040055;28;20484;-78
2021/11/23 10:02:34;;;;;;;2.80;2.50;;;21.80;55.50;;;;;;5025572;28;20503;-78
2021/11/23 10:05:09;;;;;;;2.50;1.83;;;21.90;55.50;;;;;;5028066;28;20452;-78
2021/11/23 10:07:41;;;;;;;2.33;2.07;;;21.80;55.50;;;;;;5033805;28;20455;-78
2021/11/23 10:10:18;;;;;;;2.83;2.43;;;21.80;55.50;;;;;;5021836;28;20458;-78
2021/11/23 10:13:11;;;;;;;3.63;2.10;;;21.90;55.60;;;;;;5028065;28;20794;-77
2021/11/23 10:15:41;;;;;;;2.17;1.90;;;21.90;55.60;;;;;;5032278;28;20431;-79
2021/11/23 10:18:14;;;;;;;2.80;2.10;;;21.80;55.50;;;;;;5038095;28;20561;-79
2021/11/23 10:20:49;;;;;;;3.10;2.10;;;21.80;55.50;;;;;;5013455;28;20426;-79
2021/11/23 10:23:23;;;;;;;2.60;2.23;;;21.80;55.60;;;;;;5014512;28;20453;-78
2021/11/23 10:25:53;;;;;;;2.83;1.97;;;21.80;55.50;;;;;;5033785;28;20450;-79
2021/11/23 10:28:21;;;;;;;3.37;2.50;;;21.80;55.50;;;;;;5028234;28;20433;-78
2021/11/23 10:30:48;;;;;;;2.43;2.20;;;21.80;55.50;;;;;;5015421;28;20509;-78
2021/11/23 10:33:16;;;;;;;3.10;2.10;;;21.80;55.50;;;;;;5040740;28;20421;-79
2021/11/23 10:35:45;;;;;;;3.20;2.07;;;21.90;55.60;;;;;;5050402;28;20413;-79
2021/11/23 10:38:13;;;;;;;3.30;2.80;;;21.80;55.50;;;;;;5050079;28;20410;-80
2021/11/23 10:40:42;;;;;;;3.07;2.70;;;21.90;55.60;;;;;;5024357;28;20446;-78
2021/11/23 10:43:14;;;;;;;2.20;2.00;;;21.80;55.50;;;;;;5031155;28;20458;-79
2021/11/23 10:45:46;;;;;;;2.50;1.77;;;21.90;55.60;;;;;;5012327;28;20430;-79
2021/11/23 10:48:15;;;;;;;2.50;1.90;;;21.90;55.60;;;;;;5013515;28;20507;-80
2021/11/23 10:50:55;;;;;;;2.97;2.37;;;21.90;55.60;;;;;;5008715;28;20522;-79
2021/11/23 10:53:23;;;;;;;4.10;2.67;;;21.90;55.60;;;;;;5013512;28;20450;-79
2021/11/23 10:55:49;;;;;;;6.13;2.17;;;21.90;55.60;;;;;;5044286;28;20756;-78
2021/11/23 10:58:16;;;;;;;4.10;2.20;;;21.90;55.90;;;;;;5016468;28;20443;-78
2021/11/23 11:01:38;;;;;;;2.10;1.87;;;21.90;55.60;;;;;;5040704;28;20430;-78
